sensor_id;sensor_type;location;lat;lon;timestamp;temperature;humidity
2657;DHT22;1338;48.176;11.792;2023-06-22T00:00:37;19.50;1.00
2657;DHT22;1338;48.176;11.792;2023-06-22T00:03:07;19.50;1.00
2657;DHT22;1338;48.176;11.792;2023-06-22T00:05:37;19.90;1.00
2657;DHT22;1338;48.176;11.792;2023-06-22T00:08:05;20.40;99.90
2657;DHT22;1338;48.176;11.792;2023-06-22T00:10:34;20.30;99.90
2657;DHT22;1338;48.176;11.792;2023-06-22T00:13:02;20.20;99.90
2657;DHT22;1338;48.176;11.792;2023-06-22T00:15:30;20.40;99.90
2657;DHT22;1338;48.176;11.792;2023-06-22T00:17:59;20.30;99.90
2657;DHT22;1338;48.176;11.792;2023-06-22T00:20:27;20.60;99.90
2657;DHT22;1338;48.176;11.792;2023-06-22T00:23:00;20.10;99.90
2657;DHT22;1338;48.176;11.792;2023-06-22T00:25:28;19.80;1.00
2657;DHT22;1338;48.176;11.792;2023-06-22T00:27:56;20.00;1.00
2657;DHT22;1338;48.176;11.792;2023-06-22T00:30:24;19.90;1.00
2657;DHT22;1338;48.176;11.792;2023-06-22T00:32:56;19.60;1.00
2657;DHT22;1338;48.176;11.792;2023-06-22T00:35:25;19.70;1.00
2657;DHT22;1338;48.176;11.792;2023-06-22T00:37:56;19.90;1.00
2657;DHT22;1338;48.176;11.792;2023-06-22T00:40:31;19.90;1.00
2657;DHT22;1338;48.176;11.792;2023-06-22T00:43:00;19.70;1.00
2657;DHT22;1338;48.176;11.792;2023-06-22T00:45:28;19.50;1.00
2657;DHT22;1338;48.176;11.792;2023-06-22T00:47:57;19.70;1.00
2657;DHT22;1338;48.176;11.792;2023-06-22T00:50:27;20.10;99.90
2657;DHT22;1338;48.176;11.792;2023-06-22T00:53:00;19.50;1.00
2657;DHT22;1338;48.176;11.792;2023-06-22T00:55:30;19.90;1.00
2657;DHT22;1338;48.176;11.792;2023-06-22T00:57:58;20.00;99.90
2657;DHT22;1338;48.176;11.792;2023-06-22T01:00:26;19.70;1.00
2657;DHT22;1338;48.176;11.792;2023-06-22T01:02:55;19.60;1.00
2657;DHT22;1338;48.176;11.792;2023-06-22T01:05:24;20.40;99.90
2657;DHT22;1338;48.176;11.792;2023-06-22T01:08:04;20.00;99.90
2657;DHT22;1338;48.176;11.792;2023-06-22T01:10:40;19.40;1.00
2657;DHT22;1338;48.176;11.792;2023-06-22T01:13:16;19.20;1.00
2657;DHT22;1338;48.176;11.792;2023-06-22T01:15:49;19.70;1.00
2657;DHT22;1338;48.176;11.792;2023-06-22T01:18:18;19.20;1.00
2657;DHT22;1338;48.176;11.792;2023-06-22T01:20:48;19.60;1.00
2657;DHT22;1338;48.176;11.792;2023-06-22T01:23:27;19.50;1.00
2657;DHT22;1338;48.176;11.792;2023-06-22T01:26:04;19.70;1.00
2657;DHT22;1338;48.176;11.792;2023-06-22T01:28:45;19.10;1.00
2657;DHT22;1338;48.176;11.792;2023-06-22T01:31:16;19.30;1.00
2657;DHT22;1338;48.176;11.792;2023-06-22T01:33:50;19.20;1.00
2657;DHT22;1338;48.176;11.792;2023-06-22T01:36:19;19.20;1.00
2657;DHT22;1338;48.176;11.792;2023-06-22T01:38:48;19.10;1.00
2657;DHT22;1338;48.176;11.792;2023-06-22T01:41:19;19.00;1.00
2657;DHT22;1338;48.176;11.792;2023-06-22T01:43:49;18.70;1.00
2657;DHT22;1338;48.176;11.792;2023-06-22T01:46:20;18.90;1.00
2657;DHT22;1338;48.176;11.792;2023-06-22T01:48:49;18.60;1.00
2657;DHT22;1338;48.176;11.792;2023-06-22T01:51:17;18.50;1.00
2657;DHT22;1338;48.176;11.792;2023-06-22T01:53:46;18.30;1.00
2657;DHT22;1338;48.176;11.792;2023-06-22T01:56:17;18.30;1.00
2657;DHT22;1338;48.176;11.792;2023-06-22T01:58:50;18.20;1.00
2657;DHT22;1338;48.176;11.792;2023-06-22T02:01:26;18.50;1.00
2657;DHT22;1338;48.176;11.792;2023-06-22T02:04:03;18.30;1.00
2657;DHT22;1338;48.176;11.792;2023-06-22T02:06:36;18.50;1.00
2657;DHT22;1338;48.176;11.792;2023-06-22T02:09:08;18.70;1.00
2657;DHT22;1338;48.176;11.792;2023-06-22T02:11:41;18.40;1.00
2657;DHT22;1338;48.176;11.792;2023-06-22T02:14:12;18.60;1.00
2657;DHT22;1338;48.176;11.792;2023-06-22T02:16:42;18.50;1.00
2657;DHT22;1338;48.176;11.792;2023-06-22T02:19:10;18.80;1.00
2657;DHT22;1338;48.176;11.792;2023-06-22T02:21:38;18.60;1.00
2657;DHT22;1338;48.176;11.792;2023-06-22T02:24:07;18.80;1.00
2657;DHT22;1338;48.176;11.792;2023-06-22T02:26:36;19.00;1.00
2657;DHT22;1338;48.176;11.792;2023-06-22T02:29:06;18.60;1.00
2657;DHT22;1338;48.176;11.792;2023-06-22T02:31:36;18.40;1.00
2657;DHT22;1338;48.176;11.792;2023-06-22T02:34:04;18.50;1.00
2657;DHT22;1338;48.176;11.792;2023-06-22T02:36:32;18.40;1.00
2657;DHT22;1338;48.176;11.792;2023-06-22T02:39:01;18.20;1.00
2657;DHT22;1338;48.176;11.792;2023-06-22T02:41:30;18.10;1.00
2657;DHT22;1338;48.176;11.792;2023-06-22T02:43:58;18.00;1.00
2657;DHT22;1338;48.176;11.792;2023-06-22T02:46:26;18.00;1.00
2657;DHT22;1338;48.176;11.792;2023-06-22T02:48:56;17.90;1.00
2657;DHT22;1338;48.176;11.792;2023-06-22T02:51:24;17.70;1.00
2657;DHT22;1338;48.176;11.792;2023-06-22T02:53:53;17.50;1.00
2657;DHT22;1338;48.176;11.792;2023-06-22T02:56:26;17.30;1.00
2657;DHT22;1338;48.176;11.792;2023-06-22T02:58:58;17.30;1.00
2657;DHT22;1338;48.176;11.792;2023-06-22T03:01:32;17.20;1.00
2657;DHT22;1338;48.176;11.792;2023-06-22T03:04:19;17.20;1.00
2657;DHT22;1338;48.176;11.792;2023-06-22T03:06:47;17.10;4.10
2657;DHT22;1338;48.176;11.792;2023-06-22T03:09:18;17.10;35.10
2657;DHT22;1338;48.176;11.792;2023-06-22T03:11:46;16.90;94.00
2657;DHT22;1338;48.176;11.792;2023-06-22T03:14:15;16.80;99.90
2657;DHT22;1338;48.176;11.792;2023-06-22T03:16:43;16.80;99.90
2657;DHT22;1338;48.176;11.792;2023-06-22T03:19:11;16.80;99.90
2657;DHT22;1338;48.176;11.792;2023-06-22T03:21:41;17.20;99.90
2657;DHT22;1338;48.176;11.792;2023-06-22T03:24:09;17.50;1.00
2657;DHT22;1338;48.176;11.792;2023-06-22T03:26:39;18.40;1.00
2657;DHT22;1338;48.176;11.792;2023-06-22T03:29:07;17.80;1.00
2657;DHT22;1338;48.176;11.792;2023-06-22T03:31:35;17.90;1.00
2657;DHT22;1338;48.176;11.792;2023-06-22T03:34:05;17.90;1.00
2657;DHT22;1338;48.176;11.792;2023-06-22T03:36:33;17.80;1.00
2657;DHT22;1338;48.176;11.792;2023-06-22T03:39:03;17.70;1.00
2657;DHT22;1338;48.176;11.792;2023-06-22T03:41:31;17.50;1.00
2657;DHT22;1338;48.176;11.792;2023-06-22T03:43:59;17.70;1.00
2657;DHT22;1338;48.176;11.792;2023-06-22T03:46:27;17.70;1.00
2657;DHT22;1338;48.176;11.792;2023-06-22T03:48:55;17.60;1.00
2657;DHT22;1338;48.176;11.792;2023-06-22T03:51:24;17.50;1.00
2657;DHT22;1338;48.176;11.792;2023-06-22T03:53:52;17.50;1.00
2657;DHT22;1338;48.176;11.792;2023-06-22T03:56:21;17.50;1.00
2657;DHT22;1338;48.176;11.792;2023-06-22T03:58:49;17.50;1.00
2657;DHT22;1338;48.176;11.792;2023-06-22T04:01:18;17.50;1.00
2657;DHT22;1338;48.176;11.792;2023-06-22T04:03:46;17.50;1.00
2657;DHT22;1338;48.176;11.792;2023-06-22T04:06:16;17.60;1.00
2657;DHT22;1338;48.176;11.792;2023-06-22T04:08:45;17.60;1.00
2657;DHT22;1338;48.176;11.792;2023-06-22T04:11:18;17.60;1.00
2657;DHT22;1338;48.176;11.792;2023-06-22T04:13:47;17.70;1.00
2657;DHT22;1338;48.176;11.792;2023-06-22T04:16:18;17.80;1.00
2657;DHT22;1338;48.176;11.792;2023-06-22T04:18:46;17.80;1.00
2657;DHT22;1338;48.176;11.792;2023-06-22T04:21:14;18.10;1.00
2657;DHT22;1338;48.176;11.792;2023-06-22T04:23:42;18.10;1.00
2657;DHT22;1338;48.176;11.792;2023-06-22T04:26:11;18.00;1.00
2657;DHT22;1338;48.176;11.792;2023-06-22T04:28:39;18.00;1.00
2657;DHT22;1338;48.176;11.792;2023-06-22T04:31:09;18.10;1.00
2657;DHT22;1338;48.176;11.792;2023-06-22T04:33:37;18.10;1.00
2657;DHT22;1338;48.176;11.792;2023-06-22T04:36:07;18.20;1.00
2657;DHT22;1338;48.176;11.792;2023-06-22T04:38:35;18.30;1.00
2657;DHT22;1338;48.176;11.792;2023-06-22T04:41:03;18.40;1.00
2657;DHT22;1338;48.176;11.792;2023-06-22T04:43:33;18.50;1.00
2657;DHT22;1338;48.176;11.792;2023-06-22T04:46:01;18.70;1.00
2657;DHT22;1338;48.176;11.792;2023-06-22T04:48:32;18.60;1.00
2657;DHT22;1338;48.176;11.792;2023-06-22T04:51:01;18.70;1.00
2657;DHT22;1338;48.176;11.792;2023-06-22T04:53:31;18.80;1.00
2657;DHT22;1338;48.176;11.792;2023-06-22T04:55:59;18.60;1.00
2657;DHT22;1338;48.176;11.792;2023-06-22T04:58:27;18.70;1.00
2657;DHT22;1338;48.176;11.792;2023-06-22T05:00:59;19.10;1.00
2657;DHT22;1338;48.176;11.792;2023-06-22T05:03:27;19.30;1.00
2657;DHT22;1338;48.176;11.792;2023-06-22T05:05:57;19.80;1.00
2657;DHT22;1338;48.176;11.792;2023-06-22T05:08:25;20.00;1.00
2657;DHT22;1338;48.176;11.792;2023-06-22T05:10:55;20.20;1.00
2657;DHT22;1338;48.176;11.792;2023-06-22T05:13:31;20.30;1.00
2657;DHT22;1338;48.176;11.792;2023-06-22T05:15:59;20.40;1.00
2657;DHT22;1338;48.176;11.792;2023-06-22T05:18:29;20.70;1.00
2657;DHT22;1338;48.176;11.792;2023-06-22T05:21:00;20.40;1.00
2657;DHT22;1338;48.176;11.792;2023-06-22T05:23:28;20.70;1.00
2657;DHT22;1338;48.176;11.792;2023-06-22T05:25:56;20.90;1.00
2657;DHT22;1338;48.176;11.792;2023-06-22T05:28:25;20.90;1.00
2657;DHT22;1338;48.176;11.792;2023-06-22T05:30:53;21.00;1.00
2657;DHT22;1338;48.176;11.792;2023-06-22T05:33:23;20.90;1.00
2657;DHT22;1338;48.176;11.792;2023-06-22T05:35:51;20.90;1.00
2657;DHT22;1338;48.176;11.792;2023-06-22T05:38:21;21.00;1.00
2657;DHT22;1338;48.176;11.792;2023-06-22T05:40:49;20.90;1.00
2657;DHT22;1338;48.176;11.792;2023-06-22T05:43:17;20.90;1.00
2657;DHT22;1338;48.176;11.792;2023-06-22T05:45:45;21.10;1.00
2657;DHT22;1338;48.176;11.792;2023-06-22T05:48:13;21.10;1.00
2657;DHT22;1338;48.176;11.792;2023-06-22T05:50:42;21.10;1.00
2657;DHT22;1338;48.176;11.792;2023-06-22T05:53:10;21.10;1.00
2657;DHT22;1338;48.176;11.792;2023-06-22T05:55:40;21.30;1.00
2657;DHT22;1338;48.176;11.792;2023-06-22T05:58:09;21.30;1.00
2657;DHT22;1338;48.176;11.792;2023-06-22T06:00:37;21.20;1.00
2657;DHT22;1338;48.176;11.792;2023-06-22T06:03:07;21.40;1.00
2657;DHT22;1338;48.176;11.792;2023-06-22T06:05:36;21.40;1.00
2657;DHT22;1338;48.176;11.792;2023-06-22T06:08:05;21.60;99.90
2657;DHT22;1338;48.176;11.792;2023-06-22T06:10:34;21.50;1.00
2657;DHT22;1338;48.176;11.792;2023-06-22T06:13:04;21.70;99.90
2657;DHT22;1338;48.176;11.792;2023-06-22T06:15:34;21.70;99.90
2657;DHT22;1338;48.176;11.792;2023-06-22T06:18:02;21.80;99.90
2657;DHT22;1338;48.176;11.792;2023-06-22T06:20:32;21.90;99.90
2657;DHT22;1338;48.176;11.792;2023-06-22T06:23:01;22.00;99.90
2657;DHT22;1338;48.176;11.792;2023-06-22T06:25:29;22.10;99.90
2657;DHT22;1338;48.176;11.792;2023-06-22T06:27:57;22.10;99.90
2657;DHT22;1338;48.176;11.792;2023-06-22T06:30:27;22.10;99.90
2657;DHT22;1338;48.176;11.792;2023-06-22T06:32:56;22.30;99.90
2657;DHT22;1338;48.176;11.792;2023-06-22T06:35:24;22.40;99.90
2657;DHT22;1338;48.176;11.792;2023-06-22T06:37:54;22.50;99.90
2657;DHT22;1338;48.176;11.792;2023-06-22T06:40:22;22.60;99.90
2657;DHT22;1338;48.176;11.792;2023-06-22T06:42:51;22.60;99.90
2657;DHT22;1338;48.176;11.792;2023-06-22T06:45:20;22.70;99.90
2657;DHT22;1338;48.176;11.792;2023-06-22T06:47:52;22.90;99.90
2657;DHT22;1338;48.176;11.792;2023-06-22T06:50:21;23.10;99.90
2657;DHT22;1338;48.176;11.792;2023-06-22T06:52:49;23.10;99.90
2657;DHT22;1338;48.176;11.792;2023-06-22T06:55:18;23.20;99.90
2657;DHT22;1338;48.176;11.792;2023-06-22T06:57:47;23.20;99.90
2657;DHT22;1338;48.176;11.792;2023-06-22T07:00:17;23.30;99.90
2657;DHT22;1338;48.176;11.792;2023-06-22T07:02:46;23.40;99.90
2657;DHT22;1338;48.176;11.792;2023-06-22T07:05:17;23.50;99.90
2657;DHT22;1338;48.176;11.792;2023-06-22T07:07:45;23.40;99.90
2657;DHT22;1338;48.176;11.792;2023-06-22T07:10:13;23.40;99.90
2657;DHT22;1338;48.176;11.792;2023-06-22T07:12:42;23.50;99.90
2657;DHT22;1338;48.176;11.792;2023-06-22T07:15:11;23.50;99.90
2657;DHT22;1338;48.176;11.792;2023-06-22T07:17:39;23.70;99.90
2657;DHT22;1338;48.176;11.792;2023-06-22T07:20:09;23.80;99.90
2657;DHT22;1338;48.176;11.792;2023-06-22T07:22:42;23.90;99.90
2657;DHT22;1338;48.176;11.792;2023-06-22T07:25:11;24.00;99.90
2657;DHT22;1338;48.176;11.792;2023-06-22T07:27:45;24.00;99.90
2657;DHT22;1338;48.176;11.792;2023-06-22T07:30:13;24.40;99.90
2657;DHT22;1338;48.176;11.792;2023-06-22T07:32:41;24.10;99.90
2657;DHT22;1338;48.176;11.792;2023-06-22T07:35:09;24.30;99.90
2657;DHT22;1338;48.176;11.792;2023-06-22T07:37:38;24.30;99.90
2657;DHT22;1338;48.176;11.792;2023-06-22T07:40:09;24.50;99.90
2657;DHT22;1338;48.176;11.792;2023-06-22T07:42:37;24.40;99.90
2657;DHT22;1338;48.176;11.792;2023-06-22T07:45:06;24.40;99.90
2657;DHT22;1338;48.176;11.792;2023-06-22T07:47:35;24.60;99.90
2657;DHT22;1338;48.176;11.792;2023-06-22T07:50:04;24.50;99.90
2657;DHT22;1338;48.176;11.792;2023-06-22T07:52:34;24.80;99.90
2657;DHT22;1338;48.176;11.792;2023-06-22T07:55:05;25.20;99.90
2657;DHT22;1338;48.176;11.792;2023-06-22T07:57:35;25.10;99.90
2657;DHT22;1338;48.176;11.792;2023-06-22T08:00:05;25.10;99.90
2657;DHT22;1338;48.176;11.792;2023-06-22T08:02:39;24.90;99.90
2657;DHT22;1338;48.176;11.792;2023-06-22T08:05:09;25.70;99.90
2657;DHT22;1338;48.176;11.792;2023-06-22T08:07:40;25.40;99.90
2657;DHT22;1338;48.176;11.792;2023-06-22T08:10:12;25.70;99.90
2657;DHT22;1338;48.176;11.792;2023-06-22T08:12:42;25.70;99.90
2657;DHT22;1338;48.176;11.792;2023-06-22T08:15:10;25.70;99.90
2657;DHT22;1338;48.176;11.792;2023-06-22T08:17:39;25.30;99.90
2657;DHT22;1338;48.176;11.792;2023-06-22T08:20:08;25.90;99.90
2657;DHT22;1338;48.176;11.792;2023-06-22T08:22:39;25.90;99.90
2657;DHT22;1338;48.176;11.792;2023-06-22T08:25:09;26.40;99.90
2657;DHT22;1338;48.176;11.792;2023-06-22T08:27:37;26.00;99.90
2657;DHT22;1338;48.176;11.792;2023-06-22T08:30:09;26.20;99.90
2657;DHT22;1338;48.176;11.792;2023-06-22T08:32:38;26.40;99.90
2657;DHT22;1338;48.176;11.792;2023-06-22T08:35:06;26.80;99.90
2657;DHT22;1338;48.176;11.792;2023-06-22T08:37:36;27.00;99.90
2657;DHT22;1338;48.176;11.792;2023-06-22T08:40:07;26.80;99.90
2657;DHT22;1338;48.176;11.792;2023-06-22T08:42:40;26.80;99.90
2657;DHT22;1338;48.176;11.792;2023-06-22T08:45:10;27.20;99.90
2657;DHT22;1338;48.176;11.792;2023-06-22T08:47:39;27.40;99.90
2657;DHT22;1338;48.176;11.792;2023-06-22T08:50:08;26.80;99.90
2657;DHT22;1338;48.176;11.792;2023-06-22T08:52:37;27.30;99.90
2657;DHT22;1338;48.176;11.792;2023-06-22T08:55:08;27.10;99.90
2657;DHT22;1338;48.176;11.792;2023-06-22T08:57:37;27.10;99.90
2657;DHT22;1338;48.176;11.792;2023-06-22T09:00:07;27.10;99.90
2657;DHT22;1338;48.176;11.792;2023-06-22T09:02:48;26.90;99.90
2657;DHT22;1338;48.176;11.792;2023-06-22T09:05:17;26.60;99.90
2657;DHT22;1338;48.176;11.792;2023-06-22T09:07:45;26.80;99.90
2657;DHT22;1338;48.176;11.792;2023-06-22T09:10:13;26.70;99.90
2657;DHT22;1338;48.176;11.792;2023-06-22T09:12:42;27.10;99.90
2657;DHT22;1338;48.176;11.792;2023-06-22T09:15:10;27.30;99.90
2657;DHT22;1338;48.176;11.792;2023-06-22T09:17:44;27.60;99.90
2657;DHT22;1338;48.176;11.792;2023-06-22T09:20:16;28.00;99.90
2657;DHT22;1338;48.176;11.792;2023-06-22T09:22:47;27.80;99.90
2657;DHT22;1338;48.176;11.792;2023-06-22T09:25:15;28.00;99.90
2657;DHT22;1338;48.176;11.792;2023-06-22T09:27:43;28.20;99.90
2657;DHT22;1338;48.176;11.792;2023-06-22T09:30:12;27.70;99.90
2657;DHT22;1338;48.176;11.792;2023-06-22T09:32:40;28.10;99.90
2657;DHT22;1338;48.176;11.792;2023-06-22T09:35:09;28.60;99.90
2657;DHT22;1338;48.176;11.792;2023-06-22T09:37:41;28.20;99.90
2657;DHT22;1338;48.176;11.792;2023-06-22T09:40:10;28.60;99.90
2657;DHT22;1338;48.176;11.792;2023-06-22T09:42:41;28.80;99.90
2657;DHT22;1338;48.176;11.792;2023-06-22T09:45:10;28.20;99.90
2657;DHT22;1338;48.176;11.792;2023-06-22T09:47:38;28.90;99.90
2657;DHT22;1338;48.176;11.792;2023-06-22T09:50:06;29.10;99.90
2657;DHT22;1338;48.176;11.792;2023-06-22T09:52:35;28.50;99.90
2657;DHT22;1338;48.176;11.792;2023-06-22T09:55:08;29.40;99.90
2657;DHT22;1338;48.176;11.792;2023-06-22T09:57:38;29.10;99.90
2657;DHT22;1338;48.176;11.792;2023-06-22T10:00:07;29.70;99.90
2657;DHT22;1338;48.176;11.792;2023-06-22T10:02:38;30.00;95.30
2657;DHT22;1338;48.176;11.792;2023-06-22T10:05:07;29.80;90.70
2657;DHT22;1338;48.176;11.792;2023-06-22T10:07:36;29.80;83.80
2657;DHT22;1338;48.176;11.792;2023-06-22T10:10:09;29.60;90.50
2657;DHT22;1338;48.176;11.792;2023-06-22T10:12:41;30.10;84.70
2657;DHT22;1338;48.176;11.792;2023-06-22T10:15:10;29.70;77.60
2657;DHT22;1338;48.176;11.792;2023-06-22T10:17:39;30.00;72.00
2657;DHT22;1338;48.176;11.792;2023-06-22T10:20:08;29.70;65.50
2657;DHT22;1338;48.176;11.792;2023-06-22T10:22:39;30.30;58.90
2657;DHT22;1338;48.176;11.792;2023-06-22T10:25:10;30.40;52.70
2657;DHT22;1338;48.176;11.792;2023-06-22T10:27:39;30.80;52.80
2657;DHT22;1338;48.176;11.792;2023-06-22T10:30:09;30.50;46.00
2657;DHT22;1338;48.176;11.792;2023-06-22T10:32:39;30.00;42.20
2657;DHT22;1338;48.176;11.792;2023-06-22T10:35:08;31.00;35.50
2657;DHT22;1338;48.176;11.792;2023-06-22T10:37:37;30.70;27.00
2657;DHT22;1338;48.176;11.792;2023-06-22T10:40:06;30.50;25.20
2657;DHT22;1338;48.176;11.792;2023-06-22T10:42:36;30.80;21.70
2657;DHT22;1338;48.176;11.792;2023-06-22T10:45:06;30.90;20.20
2657;DHT22;1338;48.176;11.792;2023-06-22T10:47:34;30.60;18.20
2657;DHT22;1338;48.176;11.792;2023-06-22T10:50:04;30.90;16.80
2657;DHT22;1338;48.176;11.792;2023-06-22T10:52:32;30.80;18.50
2657;DHT22;1338;48.176;11.792;2023-06-22T10:55:00;31.30;11.40
2657;DHT22;1338;48.176;11.792;2023-06-22T10:57:28;31.00;11.80
2657;DHT22;1338;48.176;11.792;2023-06-22T10:59:58;31.40;6.50
2657;DHT22;1338;48.176;11.792;2023-06-22T11:02:26;32.60;1.00
2657;DHT22;1338;48.176;11.792;2023-06-22T11:04:55;31.20;1.00
2657;DHT22;1338;48.176;11.792;2023-06-22T11:07:27;31.20;1.00
2657;DHT22;1338;48.176;11.792;2023-06-22T11:09:55;32.00;1.00
2657;DHT22;1338;48.176;11.792;2023-06-22T11:12:24;32.40;1.00
2657;DHT22;1338;48.176;11.792;2023-06-22T11:14:52;31.90;1.00
2657;DHT22;1338;48.176;11.792;2023-06-22T11:17:21;33.10;1.00
2657;DHT22;1338;48.176;11.792;2023-06-22T11:19:50;33.30;1.00
2657;DHT22;1338;48.176;11.792;2023-06-22T11:22:18;32.60;1.00
2657;DHT22;1338;48.176;11.792;2023-06-22T11:24:47;32.30;1.00
2657;DHT22;1338;48.176;11.792;2023-06-22T11:27:15;32.40;1.00
2657;DHT22;1338;48.176;11.792;2023-06-22T11:29:43;33.00;1.00
2657;DHT22;1338;48.176;11.792;2023-06-22T11:32:11;31.90;1.00
2657;DHT22;1338;48.176;11.792;2023-06-22T11:34:42;32.30;1.00
2657;DHT22;1338;48.176;11.792;2023-06-22T11:37:10;32.10;1.00
2657;DHT22;1338;48.176;11.792;2023-06-22T11:39:39;31.90;1.00
2657;DHT22;1338;48.176;11.792;2023-06-22T11:42:13;32.30;1.00
2657;DHT22;1338;48.176;11.792;2023-06-22T11:44:42;32.10;1.00
2657;DHT22;1338;48.176;11.792;2023-06-22T11:47:11;32.60;1.00
2657;DHT22;1338;48.176;11.792;2023-06-22T11:49:39;32.60;1.00
2657;DHT22;1338;48.176;11.792;2023-06-22T11:52:09;32.10;1.00
2657;DHT22;1338;48.176;11.792;2023-06-22T11:54:37;33.40;1.00
2657;DHT22;1338;48.176;11.792;2023-06-22T11:57:05;33.00;1.00
2657;DHT22;1338;48.176;11.792;2023-06-22T11:59:33;33.70;1.00
2657;DHT22;1338;48.176;11.792;2023-06-22T12:02:02;33.60;1.00
2657;DHT22;1338;48.176;11.792;2023-06-22T12:04:31;32.70;1.00
2657;DHT22;1338;48.176;11.792;2023-06-22T12:06:59;33.20;1.00
2657;DHT22;1338;48.176;11.792;2023-06-22T12:09:30;34.30;1.00
2657;DHT22;1338;48.176;11.792;2023-06-22T12:11:58;34.50;1.00
2657;DHT22;1338;48.176;11.792;2023-06-22T12:14:26;33.80;1.00
2657;DHT22;1338;48.176;11.792;2023-06-22T12:16:57;33.80;1.00
2657;DHT22;1338;48.176;11.792;2023-06-22T12:19:25;35.00;1.00
2657;DHT22;1338;48.176;11.792;2023-06-22T12:21:53;34.60;1.00
2657;DHT22;1338;48.176;11.792;2023-06-22T12:24:22;35.80;1.00
2657;DHT22;1338;48.176;11.792;2023-06-22T12:26:52;35.70;1.00
2657;DHT22;1338;48.176;11.792;2023-06-22T12:29:22;34.30;1.00
2657;DHT22;1338;48.176;11.792;2023-06-22T12:31:50;33.90;1.00
2657;DHT22;1338;48.176;11.792;2023-06-22T12:34:18;33.70;1.00
2657;DHT22;1338;48.176;11.792;2023-06-22T12:36:47;34.00;1.00
2657;DHT22;1338;48.176;11.792;2023-06-22T12:39:15;33.90;1.00
2657;DHT22;1338;48.176;11.792;2023-06-22T12:41:43;34.70;1.00
2657;DHT22;1338;48.176;11.792;2023-06-22T12:44:13;34.30;1.00
2657;DHT22;1338;48.176;11.792;2023-06-22T12:46:41;34.60;1.00
2657;DHT22;1338;48.176;11.792;2023-06-22T12:49:09;36.60;1.00
2657;DHT22;1338;48.176;11.792;2023-06-22T12:51:39;35.10;1.00
2657;DHT22;1338;48.176;11.792;2023-06-22T12:54:09;36.10;1.00
2657;DHT22;1338;48.176;11.792;2023-06-22T12:56:38;35.60;1.00
2657;DHT22;1338;48.176;11.792;2023-06-22T12:59:06;35.00;1.00
2657;DHT22;1338;48.176;11.792;2023-06-22T13:01:35;34.60;1.00
2657;DHT22;1338;48.176;11.792;2023-06-22T13:04:04;33.70;1.00
2657;DHT22;1338;48.176;11.792;2023-06-22T13:06:32;34.70;1.00
2657;DHT22;1338;48.176;11.792;2023-06-22T13:09:00;35.40;1.00
2657;DHT22;1338;48.176;11.792;2023-06-22T13:11:31;35.00;1.00
2657;DHT22;1338;48.176;11.792;2023-06-22T13:13:59;34.40;1.00
2657;DHT22;1338;48.176;11.792;2023-06-22T13:16:29;33.90;1.00
2657;DHT22;1338;48.176;11.792;2023-06-22T13:18:59;34.60;1.00
2657;DHT22;1338;48.176;11.792;2023-06-22T13:21:27;35.10;1.00
2657;DHT22;1338;48.176;11.792;2023-06-22T13:23:56;35.00;1.00
2657;DHT22;1338;48.176;11.792;2023-06-22T13:26:24;34.40;1.00
2657;DHT22;1338;48.176;11.792;2023-06-22T13:28:52;34.60;1.00
2657;DHT22;1338;48.176;11.792;2023-06-22T13:31:21;35.30;1.00
2657;DHT22;1338;48.176;11.792;2023-06-22T13:33:50;36.50;1.00
2657;DHT22;1338;48.176;11.792;2023-06-22T13:36:20;37.20;1.00
2657;DHT22;1338;48.176;11.792;2023-06-22T13:38:50;37.00;1.00
2657;DHT22;1338;48.176;11.792;2023-06-22T13:41:18;36.60;1.00
2657;DHT22;1338;48.176;11.792;2023-06-22T13:43:46;36.20;1.00
2657;DHT22;1338;48.176;11.792;2023-06-22T13:46:14;36.70;1.00
2657;DHT22;1338;48.176;11.792;2023-06-22T13:48:42;36.70;1.00
2657;DHT22;1338;48.176;11.792;2023-06-22T13:51:10;36.40;1.00
2657;DHT22;1338;48.176;11.792;2023-06-22T13:53:40;36.30;1.00
2657;DHT22;1338;48.176;11.792;2023-06-22T13:56:08;37.80;1.00
2657;DHT22;1338;48.176;11.792;2023-06-22T13:58:37;36.20;1.00
2657;DHT22;1338;48.176;11.792;2023-06-22T14:01:05;36.70;1.00
2657;DHT22;1338;48.176;11.792;2023-06-22T14:03:33;36.90;1.00
2657;DHT22;1338;48.176;11.792;2023-06-22T14:06:01;37.30;1.00
2657;DHT22;1338;48.176;11.792;2023-06-22T14:08:31;37.00;1.00
2657;DHT22;1338;48.176;11.792;2023-06-22T14:11:09;36.80;1.00
2657;DHT22;1338;48.176;11.792;2023-06-22T14:13:37;36.70;1.00
2657;DHT22;1338;48.176;11.792;2023-06-22T14:16:05;37.40;1.00
2657;DHT22;1338;48.176;11.792;2023-06-22T14:18:34;37.70;1.00
2657;DHT22;1338;48.176;11.792;2023-06-22T14:21:02;37.70;1.00
2657;DHT22;1338;48.176;11.792;2023-06-22T14:23:30;38.30;1.00
2657;DHT22;1338;48.176;11.792;2023-06-22T14:25:59;37.20;1.00
2657;DHT22;1338;48.176;11.792;2023-06-22T14:28:28;36.70;1.00
2657;DHT22;1338;48.176;11.792;2023-06-22T14:30:56;36.50;1.00
2657;DHT22;1338;48.176;11.792;2023-06-22T14:33:25;38.80;1.00
2657;DHT22;1338;48.176;11.792;2023-06-22T14:35:53;38.60;1.00
2657;DHT22;1338;48.176;11.792;2023-06-22T14:38:21;37.90;1.00
2657;DHT22;1338;48.176;11.792;2023-06-22T14:40:49;38.90;1.00
2657;DHT22;1338;48.176;11.792;2023-06-22T14:43:43;38.00;1.00
2657;DHT22;1338;48.176;11.792;2023-06-22T14:46:12;38.30;1.00
2657;DHT22;1338;48.176;11.792;2023-06-22T14:48:40;38.50;1.00
2657;DHT22;1338;48.176;11.792;2023-06-22T14:51:09;40.00;1.00
2657;DHT22;1338;48.176;11.792;2023-06-22T14:53:43;38.80;1.00
2657;DHT22;1338;48.176;11.792;2023-06-22T14:56:12;37.90;1.00
2657;DHT22;1338;48.176;11.792;2023-06-22T14:58:44;38.70;1.00
2657;DHT22;1338;48.176;11.792;2023-06-22T15:01:14;38.70;1.00
2657;DHT22;1338;48.176;11.792;2023-06-22T15:03:42;39.10;1.00
2657;DHT22;1338;48.176;11.792;2023-06-22T15:06:11;40.10;1.00
2657;DHT22;1338;48.176;11.792;2023-06-22T15:08:39;38.70;1.00
2657;DHT22;1338;48.176;11.792;2023-06-22T15:11:08;38.80;1.00
2657;DHT22;1338;48.176;11.792;2023-06-22T15:13:39;38.90;1.00
2657;DHT22;1338;48.176;11.792;2023-06-22T15:16:09;39.20;1.00
2657;DHT22;1338;48.176;11.792;2023-06-22T15:18:37;38.90;1.00
2657;DHT22;1338;48.176;11.792;2023-06-22T15:21:07;38.90;1.00
2657;DHT22;1338;48.176;11.792;2023-06-22T15:23:36;38.60;1.00
2657;DHT22;1338;48.176;11.792;2023-06-22T15:26:04;37.80;1.00
2657;DHT22;1338;48.176;11.792;2023-06-22T15:28:33;39.50;1.00
2657;DHT22;1338;48.176;11.792;2023-06-22T15:31:04;39.90;1.00
2657;DHT22;1338;48.176;11.792;2023-06-22T15:33:33;39.20;1.00
2657;DHT22;1338;48.176;11.792;2023-06-22T15:36:01;38.70;1.00
2657;DHT22;1338;48.176;11.792;2023-06-22T15:38:31;38.10;1.00
2657;DHT22;1338;48.176;11.792;2023-06-22T15:41:00;38.20;1.00
2657;DHT22;1338;48.176;11.792;2023-06-22T15:43:28;38.50;1.00
2657;DHT22;1338;48.176;11.792;2023-06-22T15:45:56;37.70;1.00
2657;DHT22;1338;48.176;11.792;2023-06-22T15:48:24;38.10;1.00
2657;DHT22;1338;48.176;11.792;2023-06-22T15:50:54;38.40;1.00
2657;DHT22;1338;48.176;11.792;2023-06-22T15:53:22;37.70;1.00
2657;DHT22;1338;48.176;11.792;2023-06-22T15:55:50;38.70;1.00
2657;DHT22;1338;48.176;11.792;2023-06-22T15:58:19;38.80;1.00
2657;DHT22;1338;48.176;11.792;2023-06-22T16:00:48;38.10;1.00
2657;DHT22;1338;48.176;11.792;2023-06-22T16:03:19;37.90;1.00
2657;DHT22;1338;48.176;11.792;2023-06-22T16:05:47;37.60;1.00
2657;DHT22;1338;48.176;11.792;2023-06-22T16:08:17;38.40;1.00
2657;DHT22;1338;48.176;11.792;2023-06-22T16:10:45;38.90;1.00